createdAt,value
2023-02-04T00:00:38.037Z,1.17
2023-02-04T00:04:25.251Z,1.70
2023-02-04T00:06:27.584Z,2.40
2023-02-04T00:09:30.199Z,0.68
2023-02-04T00:11:59.439Z,0.73
2023-02-04T00:14:39.984Z,0.95
2023-02-04T00:17:23.304Z,7.05
2023-02-04T00:20:10.129Z,1.25
2023-02-04T00:23:10.643Z,0.75
2023-02-04T00:26:16.771Z,5.57
2023-02-04T00:28:45.964Z,0.60
2023-02-04T00:31:15.225Z,1.20
2023-02-04T00:33:44.637Z,2.03
2023-02-04T00:36:13.614Z,0.50
2023-02-04T00:38:42.506Z,0.50
2023-02-04T00:41:14.069Z,0.30
2023-02-04T00:43:43.093Z,0.40
2023-02-04T00:46:13.728Z,1.17
2023-02-04T00:52:09.016Z,1.95
2023-02-04T00:54:38.116Z,1.17
2023-02-04T00:57:07.072Z,0.60
2023-02-04T00:59:36.119Z,3.25
2023-02-04T01:02:05.249Z,0.63
2023-02-04T01:04:34.363Z,4.15
2023-02-04T01:07:03.319Z,1.48
2023-02-04T01:09:34.365Z,0.82
2023-02-04T01:12:06.178Z,0.68
2023-02-04T01:14:35.138Z,3.53
2023-02-04T01:17:04.095Z,1.08
2023-02-04T01:19:33.040Z,1.17
2023-02-04T01:22:02.711Z,2.72
2023-02-04T01:24:31.695Z,2.58
2023-02-04T01:29:47.884Z,1.67
2023-02-04T01:32:16.742Z,4.78
2023-02-04T01:34:46.611Z,6.45
2023-02-04T01:37:15.605Z,4.95
2023-02-04T01:39:44.660Z,2.65
2023-02-04T01:42:15.518Z,5.65
2023-02-04T01:44:45.096Z,2.15
2023-02-04T01:47:14.270Z,2.13
2023-02-04T01:49:43.745Z,2.30
2023-02-04T01:52:13.567Z,4.55
2023-02-04T01:54:42.716Z,3.70
2023-02-04T01:57:17.195Z,6.97
2023-02-04T01:59:48.449Z,3.22
2023-02-04T02:02:40.086Z,3.58
2023-02-04T02:05:16.233Z,3.30
2023-02-04T02:07:46.313Z,4.13
2023-02-04T02:10:17.469Z,4.07
2023-02-04T02:12:47.391Z,5.68
2023-02-04T02:15:19.254Z,5.30
2023-02-04T02:17:51.392Z,6.55
2023-02-04T02:20:22.761Z,6.00
2023-02-04T02:22:51.964Z,4.68
2023-02-04T02:25:20.942Z,7.40
2023-02-04T02:27:50.289Z,4.75
2023-02-04T02:30:20.758Z,5.30
2023-02-04T02:32:51.703Z,6.03
2023-02-04T02:35:22.420Z,5.00
2023-02-04T02:37:52.175Z,7.55
2023-02-04T02:40:21.379Z,5.35
2023-02-04T02:42:53.116Z,5.95
2023-02-04T02:45:28.458Z,4.53
2023-02-04T02:48:00.557Z,3.42
2023-02-04T02:50:32.785Z,5.50
2023-02-04T02:53:05.094Z,6.35
2023-02-04T02:55:34.222Z,2.92
2023-02-04T02:58:43.636Z,4.50
2023-02-04T03:01:16.450Z,5.03
2023-02-04T03:03:52.844Z,6.60
2023-02-04T03:06:25.598Z,6.28
2023-02-04T03:08:57.774Z,5.30
2023-02-04T03:11:30.507Z,4.93
2023-02-04T03:14:06.777Z,7.30
2023-02-04T03:16:42.853Z,5.28
2023-02-04T03:20:09.478Z,8.52
2023-02-04T03:22:39.184Z,6.30
2023-02-04T03:25:27.939Z,4.68
2023-02-04T03:28:01.864Z,3.53
2023-02-04T03:30:42.660Z,6.15
2023-02-04T03:33:14.774Z,8.50
2023-02-04T03:35:43.799Z,7.30
2023-02-04T03:38:15.310Z,7.22
2023-02-04T03:40:47.753Z,5.80
2023-02-04T03:43:17.228Z,6.95
2023-02-04T03:45:46.702Z,5.55
2023-02-04T03:48:15.690Z,8.73
2023-02-04T03:50:48.100Z,7.43
2023-02-04T03:53:20.108Z,8.60
2023-02-04T03:55:55.364Z,5.82
2023-02-04T04:02:20.162Z,6.60
2023-02-04T04:05:00.823Z,6.50
2023-02-04T04:07:30.343Z,6.80
2023-02-04T04:10:04.265Z,4.78
2023-02-04T04:12:36.218Z,8.55
2023-02-04T04:15:05.865Z,8.50
2023-02-04T04:17:34.756Z,13.57
2023-02-04T04:20:05.727Z,10.70
2023-02-04T04:22:34.860Z,6.75
2023-02-04T04:25:03.872Z,13.05
2023-02-04T04:27:40.652Z,7.40
2023-02-04T04:30:19.252Z,8.38
2023-02-04T04:32:51.139Z,6.05
2023-02-04T04:35:51.899Z,6.05
2023-02-04T04:39:29.624Z,5.60
2023-02-04T04:48:31.991Z,9.05
2023-02-04T04:51:01.560Z,6.20
2023-02-04T04:53:30.654Z,5.97
2023-02-04T04:56:04.978Z,4.50
2023-02-04T04:58:45.653Z,3.78
2023-02-04T05:02:03.164Z,3.10
2023-02-04T05:05:08.853Z,1.95
2023-02-04T05:10:55.723Z,5.85
2023-02-04T05:13:29.019Z,4.57
2023-02-04T05:16:53.311Z,3.45
2023-02-04T05:19:22.255Z,6.43
2023-02-04T05:21:51.096Z,5.88
2023-02-04T05:35:47.300Z,4.38
2023-02-04T05:38:20.793Z,4.00
2023-02-04T05:42:19.202Z,4.60
2023-02-04T05:45:06.944Z,3.00
2023-02-04T05:47:39.423Z,4.28
2023-02-04T05:53:32.696Z,3.85
2023-02-04T05:56:01.825Z,5.47
2023-02-04T05:58:34.165Z,7.70
2023-02-04T06:01:05.158Z,9.43
2023-02-04T06:03:34.423Z,5.05
2023-02-04T06:06:03.349Z,3.80
2023-02-04T06:08:32.495Z,7.20
2023-02-04T06:11:01.411Z,7.47
2023-02-04T06:13:30.337Z,9.63
2023-02-04T06:15:59.279Z,6.35
2023-02-04T06:18:28.252Z,5.97
2023-02-04T06:20:57.123Z,8.50
2023-02-04T06:23:26.156Z,6.72
2023-02-04T06:25:55.984Z,9.30
2023-02-04T06:28:25.289Z,3.72
2023-02-04T06:30:54.332Z,4.32
2023-02-04T06:33:24.881Z,3.03
2023-02-04T06:35:53.870Z,3.95
2023-02-04T06:38:22.808Z,5.55
2023-02-04T06:40:54.384Z,3.95
2023-02-04T06:43:24.800Z,4.50
2023-02-04T06:45:53.700Z,7.28
2023-02-04T06:48:22.619Z,10.43
2023-02-04T06:50:51.763Z,9.80
2023-02-04T06:53:20.605Z,4.63
2023-02-04T06:55:49.557Z,4.18
2023-02-04T06:58:18.577Z,4.40
2023-02-04T07:00:47.530Z,4.38
2023-02-04T07:03:16.364Z,4.22
2023-02-04T07:05:48.237Z,3.90
2023-02-04T07:08:17.168Z,11.00
2023-02-04T07:10:46.072Z,6.30
2023-02-04T07:13:17.961Z,7.15
2023-02-04T07:15:46.965Z,7.22
2023-02-04T07:18:15.843Z,3.88
2023-02-04T07:20:44.834Z,6.18
2023-02-04T07:23:13.893Z,6.95
2023-02-04T07:25:42.936Z,5.03
2023-02-04T07:28:15.176Z,7.22
2023-02-04T07:30:47.876Z,4.03
2023-02-04T07:33:17.042Z,3.97
2023-02-04T07:35:46.205Z,2.58
2023-02-04T07:38:18.348Z,3.25
2023-02-04T07:40:49.442Z,5.63
2023-02-04T07:43:18.590Z,6.38
2023-02-04T07:45:47.476Z,10.23
2023-02-04T07:48:16.550Z,13.52
2023-02-04T07:50:45.545Z,13.60
2023-02-04T07:53:15.111Z,5.07
2023-02-04T07:55:44.416Z,5.70
2023-02-04T07:58:13.299Z,6.32
2023-02-04T08:00:42.256Z,6.40
2023-02-04T08:03:11.116Z,8.25
2023-02-04T08:05:51.618Z,9.80
2023-02-04T08:08:21.188Z,9.18
2023-02-04T08:10:50.501Z,6.40
2023-02-04T08:13:19.448Z,3.35
2023-02-04T08:15:48.481Z,7.72
2023-02-04T08:18:19.315Z,18.50
2023-02-04T08:20:48.295Z,26.98
2023-02-04T08:23:42.390Z,41.40
2023-02-04T08:26:12.693Z,50.47
2023-02-04T08:28:41.624Z,50.53
2023-02-04T08:31:14.032Z,50.55
2023-02-04T08:33:43.194Z,57.10
2023-02-04T08:36:12.065Z,68.50
2023-02-04T08:38:42.014Z,60.67
2023-02-04T08:41:10.996Z,41.53
2023-02-04T08:43:40.460Z,21.40
2023-02-04T08:46:09.689Z,9.90
2023-02-04T08:48:38.562Z,9.20
2023-02-04T08:51:08.413Z,12.18
2023-02-04T08:53:38.487Z,3.17
2023-02-04T08:56:09.751Z,11.60
2023-02-04T08:58:40.957Z,12.93
2023-02-04T09:01:12.058Z,33.50
2023-02-04T09:03:41.901Z,53.00
2023-02-04T09:06:10.933Z,11.25
2023-02-04T09:08:39.950Z,14.70
2023-02-04T09:11:15.775Z,6.05
2023-02-04T09:13:44.734Z,6.40
2023-02-04T09:16:13.670Z,17.77
2023-02-04T09:18:45.817Z,6.78
2023-02-04T09:21:21.361Z,7.95
2023-02-04T09:23:53.558Z,3.03
2023-02-04T09:26:31.953Z,1.83
2023-02-04T09:29:00.993Z,2.88
2023-02-04T09:31:30.368Z,7.00
2023-02-04T09:34:00.923Z,3.30
2023-02-04T09:36:35.053Z,3.28
2023-02-04T09:39:07.196Z,2.78
2023-02-04T09:41:46.119Z,2.30
2023-02-04T09:44:27.808Z,3.65
2023-02-04T09:47:02.973Z,2.30
2023-02-04T09:49:39.024Z,2.45
2023-02-04T09:52:15.725Z,2.28
2023-02-04T09:54:51.107Z,3.30
2023-02-04T09:57:21.992Z,5.40
2023-02-04T09:59:53.812Z,1.30
2023-02-04T10:02:33.822Z,1.85
2023-02-04T10:05:10.033Z,0.60
2023-02-04T10:07:47.798Z,2.92
2023-02-04T10:10:33.411Z,2.33
2023-02-04T10:13:20.251Z,0.82
2023-02-04T10:16:03.369Z,0.63
2023-02-04T10:18:39.533Z,1.20
2023-02-04T10:21:24.606Z,1.20
2023-02-04T10:24:00.447Z,0.40
2023-02-04T10:26:31.642Z,1.13
2023-02-04T10:29:05.740Z,1.25
2023-02-04T10:31:38.704Z,1.75
2023-02-04T10:34:25.308Z,0.75
2023-02-04T10:36:59.351Z,1.92
2023-02-04T10:39:32.492Z,0.60
2023-02-04T10:42:02.560Z,0.73
2023-02-04T10:44:37.657Z,1.52
2023-02-04T10:47:24.172Z,2.92
2023-02-04T10:50:16.886Z,4.78
2023-02-04T10:52:53.263Z,0.63
2023-02-04T10:55:25.127Z,1.95
2023-02-04T10:58:08.945Z,2.08
2023-02-04T11:00:44.208Z,0.50
2023-02-04T11:03:23.896Z,1.60
2023-02-04T11:05:56.205Z,1.63
2023-02-04T11:08:34.056Z,0.60
2023-02-04T11:11:13.157Z,0.75
2023-02-04T11:13:51.695Z,2.15
2023-02-04T11:16:37.521Z,0.40
2023-02-04T11:19:17.393Z,0.30
2023-02-04T11:21:56.400Z,2.13
2023-02-04T11:24:29.609Z,0.45
2023-02-04T11:27:36.052Z,1.02
2023-02-04T11:30:21.340Z,0.40
2023-02-04T11:33:24.583Z,0.65
2023-02-04T11:36:05.698Z,0.73
2023-02-04T11:38:42.660Z,0.65
2023-02-04T11:41:39.767Z,1.13
2023-02-04T11:44:20.660Z,0.55
2023-02-04T11:46:57.618Z,1.75
2023-02-04T11:52:20.453Z,0.57
2023-02-04T11:55:23.557Z,2.85
2023-02-04T11:57:57.623Z,0.80
2023-02-04T12:00:36.302Z,0.40
2023-02-04T12:03:33.720Z,1.42
2023-02-04T12:06:06.116Z,0.45
2023-02-04T12:08:37.534Z,0.55
2023-02-04T12:11:12.510Z,1.25
2023-02-04T12:13:51.069Z,0.65
2023-02-04T12:16:20.860Z,0.40
2023-02-04T12:18:50.223Z,1.52
2023-02-04T12:21:20.315Z,0.50
2023-02-04T12:23:52.261Z,0.40
2023-02-04T12:26:21.242Z,0.80
2023-02-04T12:28:50.328Z,1.35
2023-02-04T12:31:19.422Z,0.80
2023-02-04T12:33:48.873Z,0.63
2023-02-04T12:36:17.940Z,1.25
2023-02-04T12:38:46.985Z,1.13
2023-02-04T12:41:20.745Z,2.50
2023-02-04T12:43:55.158Z,1.70
2023-02-04T12:46:26.642Z,1.15
2023-02-04T12:48:59.202Z,0.88
2023-02-04T12:51:58.540Z,2.17
2023-02-04T12:54:41.719Z,3.50
2023-02-04T12:57:15.061Z,6.00
2023-02-04T12:59:47.809Z,3.58
2023-02-04T13:02:17.407Z,2.38
2023-02-04T13:04:49.517Z,1.88
2023-02-04T13:07:25.713Z,3.42
2023-02-04T13:09:58.597Z,3.47
2023-02-04T13:12:28.518Z,5.32
2023-02-04T13:14:57.569Z,3.05
2023-02-04T13:17:29.748Z,1.45
2023-02-04T13:20:01.910Z,0.80
2023-02-04T13:22:31.275Z,1.48
2023-02-04T13:25:04.256Z,0.60
2023-02-04T13:27:40.170Z,2.67
2023-02-04T13:30:21.288Z,2.13
2023-02-04T13:32:50.403Z,1.50
2023-02-04T13:35:22.080Z,1.52
2023-02-04T13:37:51.056Z,3.53
2023-02-04T13:40:20.011Z,1.15
2023-02-04T13:42:49.027Z,1.35
2023-02-04T13:45:19.649Z,2.13
2023-02-04T13:47:49.644Z,1.95
2023-02-04T13:50:18.820Z,1.23
2023-02-04T13:52:50.570Z,0.90
2023-02-04T13:55:25.232Z,0.75
2023-02-04T13:57:54.383Z,1.63
2023-02-04T14:00:23.391Z,0.93
2023-02-04T14:02:52.472Z,0.50
2023-02-04T14:05:21.393Z,0.90
2023-02-04T14:07:53.736Z,3.38
2023-02-04T14:10:25.720Z,0.68
2023-02-04T14:12:59.356Z,0.40
2023-02-04T14:15:31.522Z,0.40
2023-02-04T14:18:00.707Z,2.28
2023-02-04T14:20:30.425Z,0.65
2023-02-04T14:23:02.758Z,4.40
2023-02-04T14:25:34.557Z,0.50
2023-02-04T14:28:06.957Z,1.25
2023-02-04T14:30:39.816Z,0.75
2023-02-04T14:33:24.408Z,0.50
2023-02-04T14:36:05.309Z,0.40
2023-02-04T14:38:41.101Z,0.75
2023-02-04T14:41:17.146Z,2.58
2023-02-04T14:43:59.395Z,1.55
2023-02-04T14:46:42.206Z,0.82
2023-02-04T14:49:17.283Z,2.40
2023-02-04T14:51:54.395Z,1.02
2023-02-04T14:54:28.047Z,0.55
2023-02-04T14:57:00.165Z,0.45
2023-02-04T14:59:29.564Z,1.65
2023-02-04T15:01:58.634Z,0.60
2023-02-04T15:04:27.706Z,2.30
2023-02-04T15:06:58.450Z,1.00
2023-02-04T15:09:27.702Z,0.50
2023-02-04T15:11:57.799Z,1.27
2023-02-04T15:14:26.863Z,3.05
2023-02-04T15:16:55.858Z,2.63
2023-02-04T15:19:28.180Z,0.47
2023-02-04T15:22:13.431Z,0.60
2023-02-04T15:24:45.038Z,2.50
2023-02-04T15:27:14.156Z,1.08
2023-02-04T15:29:46.344Z,2.17
2023-02-04T15:32:15.394Z,1.17
2023-02-04T15:34:44.369Z,1.30
2023-02-04T15:37:17.350Z,0.73
2023-02-04T15:39:46.328Z,0.63
2023-02-04T15:42:20.682Z,0.45
2023-02-04T15:45:07.835Z,2.05
2023-02-04T15:47:37.319Z,4.38
2023-02-04T15:50:14.622Z,1.85
2023-02-04T15:52:53.318Z,1.88
2023-02-04T15:55:25.806Z,0.80
2023-02-04T15:57:54.851Z,0.47
2023-02-04T16:00:23.964Z,1.00
2023-02-04T16:02:53.048Z,0.90
2023-02-04T16:05:25.054Z,2.00
2023-02-04T16:07:56.065Z,0.70
2023-02-04T16:10:25.285Z,1.05
2023-02-04T16:12:55.771Z,1.55
2023-02-04T16:15:26.002Z,1.23
2023-02-04T16:17:56.856Z,0.77
2023-02-04T16:20:26.075Z,0.85
2023-02-04T16:22:55.195Z,0.80
2023-02-04T16:25:24.714Z,1.63
2023-02-04T16:27:53.662Z,1.52
2023-02-04T16:30:22.755Z,1.48
2023-02-04T16:32:51.736Z,3.90
2023-02-04T16:35:20.833Z,2.58
2023-02-04T16:37:50.145Z,2.63
2023-02-04T16:40:19.408Z,1.73
2023-02-04T16:42:48.325Z,1.13
2023-02-04T16:45:17.313Z,0.60
2023-02-04T16:47:46.154Z,0.70
2023-02-04T16:50:15.102Z,1.75
2023-02-04T16:52:44.013Z,0.82
2023-02-04T16:55:13.304Z,0.82
2023-02-04T16:57:44.028Z,4.57
2023-02-04T17:00:13.979Z,7.55
2023-02-04T17:02:42.966Z,6.80
2023-02-04T17:05:14.622Z,5.93
2023-02-04T17:07:43.579Z,8.82
2023-02-04T17:10:12.415Z,6.03
2023-02-04T17:12:41.446Z,4.78
2023-02-04T17:15:10.695Z,2.47
2023-02-04T17:17:39.667Z,0.80
2023-02-04T17:20:08.859Z,1.10
2023-02-04T17:22:37.761Z,2.38
2023-02-04T17:25:07.501Z,2.35
2023-02-04T17:27:44.548Z,5.82
2023-02-04T17:30:21.292Z,17.08
2023-02-04T17:32:50.679Z,17.38
2023-02-04T17:35:25.996Z,3.83
2023-02-04T18:05:30.925Z,2.50
2023-02-04T18:34:52.043Z,1.35
2023-02-04T18:41:24.368Z,0.80
2023-02-04T18:44:47.116Z,0.57
2023-02-04T18:49:20.971Z,1.23
2023-02-04T18:52:39.756Z,1.50
2023-02-04T18:59:44.776Z,1.17
2023-02-04T19:03:27.833Z,1.38
2023-02-04T19:07:37.501Z,3.00
2023-02-04T19:11:32.100Z,0.88
2023-02-04T19:14:20.619Z,4.00
2023-02-04T19:24:10.063Z,0.60
2023-02-04T19:27:04.857Z,0.70
2023-02-04T19:29:43.368Z,1.25
2023-02-04T19:32:26.154Z,1.15
2023-02-04T19:34:59.238Z,2.42
2023-02-04T19:38:07.980Z,1.63
2023-02-04T19:40:43.923Z,1.83
2023-02-04T19:43:44.240Z,0.83
2023-02-04T19:46:48.653Z,1.07
2023-02-04T19:49:30.986Z,0.70
2023-02-04T19:52:00.514Z,1.60
2023-02-04T19:54:47.219Z,0.60
2023-02-04T19:57:37.836Z,1.77
2023-02-04T20:00:36.075Z,0.68
2023-02-04T20:03:21.297Z,0.70
2023-02-04T20:11:58.976Z,2.47
2023-02-04T20:15:20.821Z,1.60
2023-02-04T20:17:54.848Z,1.05
2023-02-04T20:20:36.052Z,3.28
2023-02-04T20:23:28.105Z,0.68
2023-02-04T20:40:23.620Z,1.02
2023-02-04T20:42:59.319Z,1.13
2023-02-04T20:46:29.413Z,2.13
2023-02-04T21:03:32.079Z,1.00
2023-02-04T21:51:08.562Z,4.15
2023-02-04T22:00:23.544Z,1.20
2023-02-04T22:20:01.291Z,2.08
2023-02-04T22:23:03.915Z,4.70
2023-02-04T22:32:15.399Z,1.27
2023-02-04T22:35:37.262Z,1.38
2023-02-04T22:38:42.774Z,2.35
2023-02-04T22:41:12.036Z,2.05
2023-02-04T22:43:40.999Z,1.30
2023-02-04T22:46:09.912Z,0.90
2023-02-04T22:48:38.922Z,1.45
2023-02-04T22:51:11.979Z,0.70
2023-02-04T22:53:41.258Z,2.92
2023-02-04T22:56:18.001Z,3.22
2023-02-04T22:58:52.832Z,2.03
2023-02-04T23:01:22.714Z,1.77
2023-02-04T23:03:54.506Z,3.42
2023-02-04T23:06:32.149Z,1.40
2023-02-04T23:09:01.321Z,2.13
2023-02-04T23:11:33.344Z,1.88
2023-02-04T23:14:02.508Z,1.70
2023-02-04T23:16:31.543Z,1.30
2023-02-04T23:19:01.255Z,1.65
2023-02-04T23:21:32.637Z,1.50
2023-02-04T23:24:04.774Z,1.17
2023-02-04T23:27:01.116Z,4.78
2023-02-04T23:29:49.830Z,1.60
2023-02-04T23:32:24.642Z,1.48
2023-02-04T23:37:25.826Z,4.60
2023-02-04T23:46:03.757Z,6.60
2023-02-04T23:48:32.659Z,8.00
2023-02-04T23:51:01.668Z,7.18
2023-02-04T23:53:30.554Z,5.07
2023-02-04T23:56:02.580Z,2.90
2023-02-04T23:58:43.466Z,1.67
